createdAt,value
2019-03-27T00:00:04.446Z,50.65
2019-03-27T00:02:30.777Z,50.85
2019-03-27T00:04:57.079Z,51.12
2019-03-27T00:07:23.412Z,50.94
2019-03-27T00:09:49.735Z,51.31
2019-03-27T00:12:16.044Z,51.16
2019-03-27T00:14:42.355Z,51.03
2019-03-27T00:17:08.954Z,50.94
2019-03-27T00:19:35.264Z,50.85
2019-03-27T00:22:01.575Z,51.18
2019-03-27T00:24:27.900Z,51.10
2019-03-27T00:26:54.220Z,50.86
2019-03-27T00:29:20.539Z,50.68
2019-03-27T00:31:46.942Z,50.75
2019-03-27T00:34:13.213Z,50.78
2019-03-27T00:36:39.523Z,50.94
2019-03-27T00:39:05.850Z,51.32
2019-03-27T00:41:32.156Z,50.92
2019-03-27T00:43:58.477Z,50.72
2019-03-27T00:46:24.785Z,50.90
2019-03-27T00:48:51.095Z,51.00
2019-03-27T00:51:17.444Z,50.92
2019-03-27T00:53:45.100Z,51.03
2019-03-27T00:56:10.275Z,50.92
2019-03-27T00:58:36.588Z,51.16
2019-03-27T01:01:02.903Z,51.13
2019-03-27T01:03:29.210Z,51.13
2019-03-27T01:05:55.518Z,51.13
2019-03-27T01:08:21.832Z,51.35
2019-03-27T01:10:48.158Z,50.83
2019-03-27T01:13:14.537Z,50.73
2019-03-27T01:15:40.877Z,50.99
2019-03-27T01:18:07.184Z,50.88
2019-03-27T01:20:33.513Z,51.10
2019-03-27T01:22:59.849Z,51.12
2019-03-27T01:25:26.172Z,51.26
2019-03-27T01:27:52.505Z,51.32
2019-03-27T01:30:18.800Z,51.52
2019-03-27T01:32:45.113Z,51.22
2019-03-27T01:35:11.425Z,51.32
2019-03-27T01:37:38.748Z,51.31
2019-03-27T01:40:05.067Z,51.32
2019-03-27T01:42:31.394Z,51.35
2019-03-27T01:44:57.704Z,51.40
2019-03-27T01:47:24.088Z,51.25
2019-03-27T01:49:50.403Z,51.37
2019-03-27T01:52:16.715Z,51.23
2019-03-27T01:54:43.027Z,51.40
2019-03-27T01:57:09.332Z,51.45
2019-03-27T01:59:35.645Z,51.47
2019-03-27T02:02:01.961Z,51.43
2019-03-27T02:04:28.273Z,51.77
2019-03-27T02:06:54.590Z,51.75
2019-03-27T02:09:20.899Z,51.65
2019-03-27T02:11:47.214Z,51.32
2019-03-27T02:14:13.525Z,51.81
2019-03-27T02:16:39.855Z,51.68
2019-03-27T02:19:06.161Z,51.87
2019-03-27T02:21:32.469Z,51.81
2019-03-27T02:23:58.782Z,51.71
2019-03-27T02:26:25.087Z,52.03
2019-03-27T02:28:51.396Z,52.02
2019-03-27T02:31:17.892Z,51.94
2019-03-27T02:33:44.274Z,52.18
2019-03-27T02:36:10.585Z,52.15
2019-03-27T02:38:36.906Z,52.29
2019-03-27T02:41:03.211Z,52.14
2019-03-27T02:43:29.516Z,52.51
2019-03-27T02:45:55.825Z,52.46
2019-03-27T02:48:22.137Z,52.72
2019-03-27T02:50:48.445Z,52.95
2019-03-27T02:53:14.758Z,52.59
2019-03-27T02:55:41.067Z,52.70
2019-03-27T02:58:07.369Z,52.69
2019-03-27T03:00:33.699Z,53.23
2019-03-27T03:02:59.989Z,53.01
2019-03-27T03:05:26.329Z,53.23
2019-03-27T03:07:52.628Z,53.51
2019-03-27T03:10:18.924Z,53.49
2019-03-27T03:12:45.233Z,53.57
2019-03-27T03:15:11.554Z,53.97
2019-03-27T03:17:38.110Z,53.88
2019-03-27T03:20:04.410Z,54.02
2019-03-27T03:22:30.739Z,53.99
2019-03-27T03:24:57.049Z,54.13
2019-03-27T03:27:23.359Z,54.33
2019-03-27T03:29:49.667Z,54.58
2019-03-27T03:32:15.977Z,54.85
2019-03-27T03:34:42.297Z,55.02
2019-03-27T03:37:08.593Z,54.98
2019-03-27T03:39:34.922Z,55.11
2019-03-27T03:42:01.243Z,55.26
2019-03-27T03:44:27.552Z,55.59
2019-03-27T03:46:59.920Z,55.24
2019-03-27T03:49:20.146Z,55.31
2019-03-27T03:51:46.448Z,55.61
2019-03-27T03:54:12.807Z,55.72
2019-03-27T03:56:39.071Z,55.54
2019-03-27T03:59:05.372Z,55.62
2019-03-27T04:01:31.683Z,55.73
2019-03-27T04:03:57.993Z,55.85
2019-03-27T04:06:24.329Z,56.07
2019-03-27T04:08:50.633Z,56.46
2019-03-27T04:11:16.935Z,56.02
2019-03-27T04:13:43.394Z,56.04
2019-03-27T04:16:09.553Z,56.32
2019-03-27T04:18:35.887Z,56.27
2019-03-27T04:21:02.247Z,56.33
2019-03-27T04:23:28.544Z,56.72
2019-03-27T04:26:09.267Z,56.70
2019-03-27T04:28:21.198Z,56.65
2019-03-27T04:30:47.504Z,56.88
2019-03-27T04:33:13.812Z,56.85
2019-03-27T04:35:40.115Z,56.81
2019-03-27T04:38:06.456Z,56.70
2019-03-27T04:40:32.766Z,56.39
2019-03-27T04:42:59.081Z,56.41
2019-03-27T04:45:25.395Z,55.99
2019-03-27T04:47:51.705Z,55.74
2019-03-27T04:50:18.017Z,55.64
2019-03-27T04:52:44.324Z,55.48
2019-03-27T04:55:10.634Z,55.06
2019-03-27T04:57:36.949Z,54.47
2019-03-27T05:00:03.279Z,54.56
2019-03-27T05:02:29.585Z,53.92
2019-03-27T05:04:55.898Z,53.93
2019-03-27T05:07:22.207Z,53.18
2019-03-27T05:09:48.513Z,53.61
2019-03-27T05:12:14.905Z,53.49
2019-03-27T05:14:41.182Z,52.90
2019-03-27T05:17:07.488Z,52.50
2019-03-27T05:19:33.837Z,52.21
2019-03-27T05:22:00.142Z,52.30
2019-03-27T05:24:26.473Z,51.79
2019-03-27T05:26:52.955Z,51.99
2019-03-27T05:29:19.262Z,51.54
2019-03-27T05:31:46.335Z,51.15
2019-03-27T05:34:12.661Z,51.33
2019-03-27T05:36:38.971Z,51.09
2019-03-27T05:39:05.281Z,50.13
2019-03-27T05:41:31.593Z,49.68
2019-03-27T05:43:58.071Z,50.28
2019-03-27T05:46:26.548Z,50.00
2019-03-27T05:48:50.685Z,49.65
2019-03-27T05:51:16.990Z,49.38
2019-03-27T05:53:43.296Z,49.23
2019-03-27T05:56:09.636Z,49.01
2019-03-27T05:58:35.995Z,49.21
2019-03-27T06:01:02.303Z,48.59
2019-03-27T06:03:28.607Z,48.52
2019-03-27T06:05:54.952Z,48.11
2019-03-27T06:08:21.252Z,48.26
2019-03-27T06:10:47.559Z,47.75
2019-03-27T06:13:13.898Z,47.43
2019-03-27T06:15:40.208Z,47.06
2019-03-27T06:18:12.969Z,46.24
2019-03-27T06:20:32.889Z,45.97
2019-03-27T06:22:59.197Z,46.11
2019-03-27T06:25:25.516Z,46.05
2019-03-27T06:27:51.926Z,45.13
2019-03-27T06:30:18.225Z,44.94
2019-03-27T06:32:44.572Z,44.88
2019-03-27T06:35:10.885Z,44.00
2019-03-27T06:37:37.202Z,43.94
2019-03-27T06:40:03.511Z,43.05
2019-03-27T06:42:30.083Z,43.66
2019-03-27T06:44:56.478Z,42.80
2019-03-27T06:47:22.789Z,42.38
2019-03-27T06:49:49.108Z,42.42
2019-03-27T06:52:15.417Z,42.33
2019-03-27T06:54:41.744Z,41.93
2019-03-27T06:57:08.059Z,42.04
2019-03-27T06:59:34.397Z,42.91
2019-03-27T07:02:00.701Z,43.61
2019-03-27T07:04:27.031Z,43.06
2019-03-27T07:06:53.327Z,42.77
2019-03-27T07:09:19.643Z,43.07
2019-03-27T07:11:45.957Z,42.68
2019-03-27T07:14:12.264Z,43.27
2019-03-27T07:16:38.594Z,43.31
2019-03-27T07:19:04.914Z,42.69
2019-03-27T07:21:31.227Z,42.78
2019-03-27T07:23:57.584Z,42.99
2019-03-27T07:26:23.895Z,45.45
2019-03-27T07:28:50.223Z,43.07
2019-03-27T07:31:16.527Z,42.82
2019-03-27T07:33:42.837Z,41.69
2019-03-27T07:36:09.146Z,41.83
2019-03-27T07:38:35.460Z,41.98
2019-03-27T07:41:01.762Z,40.98
2019-03-27T07:43:28.207Z,40.50
2019-03-27T07:45:54.506Z,40.05
2019-03-27T07:48:20.829Z,40.56
2019-03-27T07:50:47.130Z,40.26
2019-03-27T07:53:13.458Z,39.69
2019-03-27T07:55:39.838Z,39.88
2019-03-27T07:58:06.148Z,39.20
2019-03-27T08:00:32.468Z,38.85
2019-03-27T08:02:58.787Z,38.62
2019-03-27T08:05:25.216Z,37.40
2019-03-27T08:07:51.437Z,36.85
2019-03-27T08:10:17.748Z,37.53
2019-03-27T08:12:44.126Z,37.29
2019-03-27T08:15:10.428Z,37.76
2019-03-27T08:17:36.732Z,38.10
2019-03-27T08:20:03.039Z,37.46
2019-03-27T08:22:29.364Z,36.40
2019-03-27T08:24:55.666Z,36.02
2019-03-27T08:27:21.973Z,36.10
2019-03-27T08:29:48.290Z,35.75
2019-03-27T08:32:14.596Z,36.40
2019-03-27T08:34:40.910Z,35.39
2019-03-27T08:37:07.321Z,35.01
2019-03-27T08:39:33.620Z,34.27
2019-03-27T08:41:59.925Z,33.58
2019-03-27T08:44:26.238Z,33.32
2019-03-27T08:46:52.553Z,32.75
2019-03-27T08:49:22.290Z,32.34
2019-03-27T08:51:45.199Z,32.30
2019-03-27T08:54:11.504Z,32.17
2019-03-27T08:56:37.831Z,33.16
2019-03-27T08:59:04.136Z,32.96
2019-03-27T09:01:30.441Z,32.89
2019-03-27T09:03:56.752Z,32.53
2019-03-27T09:06:33.012Z,32.58
2019-03-27T09:08:49.376Z,32.70
2019-03-27T09:11:15.707Z,32.18
2019-03-27T09:13:42.024Z,31.37
2019-03-27T09:16:08.335Z,32.15
2019-03-27T09:18:34.644Z,31.57
2019-03-27T09:21:00.957Z,31.73
2019-03-27T09:23:27.259Z,30.69
2019-03-27T09:25:53.563Z,30.39
2019-03-27T09:28:19.878Z,30.18
2019-03-27T09:30:46.191Z,30.03
2019-03-27T09:33:12.526Z,29.52
2019-03-27T09:35:38.836Z,29.22
2019-03-27T09:38:05.160Z,28.41
2019-03-27T09:40:31.451Z,28.19
2019-03-27T09:42:57.759Z,28.55
2019-03-27T09:45:24.073Z,28.12
2019-03-27T09:47:50.396Z,27.66
2019-03-27T09:50:16.728Z,28.03
2019-03-27T09:52:43.053Z,26.82
2019-03-27T09:55:09.366Z,27.27
2019-03-27T09:57:35.668Z,27.01
2019-03-27T10:00:01.984Z,26.90
2019-03-27T10:02:28.296Z,26.38
2019-03-27T10:04:56.079Z,26.46
2019-03-27T10:07:20.908Z,26.57
2019-03-27T10:09:50.211Z,26.75
2019-03-27T10:12:13.523Z,26.48
2019-03-27T10:14:39.837Z,26.85
2019-03-27T10:17:06.184Z,26.57
2019-03-27T10:19:32.488Z,25.96
2019-03-27T10:21:58.794Z,25.72
2019-03-27T10:24:25.106Z,25.50
2019-03-27T10:26:51.419Z,25.87
2019-03-27T10:29:17.728Z,25.39
2019-03-27T10:31:44.038Z,25.92
2019-03-27T10:34:10.352Z,26.70
2019-03-27T10:36:36.661Z,26.21
2019-03-27T10:39:02.993Z,26.09
2019-03-27T10:41:29.378Z,26.21
2019-03-27T10:43:55.611Z,26.04
2019-03-27T10:46:21.986Z,26.79
2019-03-27T10:48:52.857Z,26.22
2019-03-27T10:51:14.582Z,26.31
2019-03-27T10:53:40.893Z,27.03
2019-03-27T10:56:07.201Z,26.58
2019-03-27T10:58:33.516Z,26.58
2019-03-27T11:00:59.816Z,25.78
2019-03-27T11:03:26.135Z,25.95
2019-03-27T11:05:52.428Z,25.83
2019-03-27T11:08:18.747Z,25.98
2019-03-27T11:10:45.055Z,25.64
2019-03-27T11:13:11.409Z,26.54
2019-03-27T11:15:37.717Z,26.19
2019-03-27T11:18:04.022Z,26.49
2019-03-27T11:20:31.500Z,25.20
2019-03-27T11:22:56.706Z,26.37
2019-03-27T11:25:23.029Z,26.57
2019-03-27T11:27:49.348Z,26.08
2019-03-27T11:30:15.662Z,25.99
2019-03-27T11:32:41.967Z,25.72
2019-03-27T11:35:08.310Z,25.75
2019-03-27T11:37:34.607Z,25.57
2019-03-27T11:40:00.913Z,26.10
2019-03-27T11:42:27.224Z,25.84
2019-03-27T11:44:53.529Z,25.72
2019-03-27T11:47:19.841Z,26.25
2019-03-27T11:49:46.149Z,25.76
2019-03-27T11:52:12.460Z,25.77
2019-03-27T11:54:39.108Z,25.62
2019-03-27T11:57:05.461Z,25.91
2019-03-27T11:59:31.769Z,25.00
2019-03-27T12:01:58.103Z,26.09
2019-03-27T12:04:24.412Z,25.27
2019-03-27T12:06:50.720Z,25.79
2019-03-27T12:09:17.093Z,25.65
2019-03-27T12:11:43.349Z,25.84
2019-03-27T12:14:12.169Z,25.95
2019-03-27T12:16:35.964Z,25.39
2019-03-27T12:19:02.393Z,25.22
2019-03-27T12:21:28.727Z,24.51
2019-03-27T12:23:55.033Z,25.51
2019-03-27T12:26:21.355Z,25.97
2019-03-27T12:28:47.659Z,25.97
2019-03-27T12:31:13.970Z,25.75
2019-03-27T12:33:40.272Z,25.43
2019-03-27T12:36:06.607Z,25.41
2019-03-27T12:38:32.959Z,24.91
2019-03-27T12:40:59.345Z,25.12
2019-03-27T12:43:25.642Z,24.64
2019-03-27T12:45:51.949Z,25.91
2019-03-27T12:48:18.265Z,25.83
2019-03-27T12:50:44.641Z,25.75
2019-03-27T12:53:10.889Z,26.05
2019-03-27T12:55:37.191Z,26.08
2019-03-27T12:58:03.565Z,26.30
2019-03-27T13:00:29.873Z,27.29
2019-03-27T13:02:56.181Z,27.56
2019-03-27T13:05:22.511Z,27.95
2019-03-27T13:07:50.283Z,28.04
2019-03-27T13:10:15.140Z,28.07
2019-03-27T13:12:41.453Z,27.78
2019-03-27T13:15:07.761Z,27.74
2019-03-27T13:17:34.437Z,28.02
2019-03-27T13:20:00.518Z,28.44
2019-03-27T13:22:26.690Z,28.47
2019-03-27T13:24:53.025Z,28.53
2019-03-27T13:27:19.334Z,28.28
2019-03-27T13:29:45.640Z,28.42
2019-03-27T13:32:11.953Z,28.14
2019-03-27T13:34:38.262Z,28.46
2019-03-27T13:37:04.573Z,27.74
2019-03-27T13:39:30.876Z,28.83
2019-03-27T13:41:57.203Z,28.09
2019-03-27T13:44:36.305Z,28.15
2019-03-27T13:46:49.885Z,28.60
2019-03-27T13:49:16.126Z,28.35
2019-03-27T13:51:42.436Z,28.00
2019-03-27T13:54:08.745Z,27.89
2019-03-27T13:56:35.054Z,28.14
2019-03-27T13:59:01.364Z,28.11
2019-03-27T14:01:27.674Z,28.22
2019-03-27T14:03:53.991Z,28.21
2019-03-27T14:06:20.298Z,28.11
2019-03-27T14:08:46.643Z,28.24
2019-03-27T14:11:12.917Z,28.25
2019-03-27T14:13:39.226Z,27.76
2019-03-27T14:16:05.557Z,28.00
2019-03-27T14:18:31.877Z,27.88
2019-03-27T14:20:58.202Z,27.93
2019-03-27T14:23:24.504Z,28.19
2019-03-27T14:25:50.817Z,28.17
2019-03-27T14:28:17.120Z,28.44
2019-03-27T14:30:43.427Z,28.22
2019-03-27T14:33:09.756Z,28.21
2019-03-27T14:35:36.069Z,28.29
2019-03-27T14:38:02.392Z,28.40
2019-03-27T14:40:28.700Z,28.46
2019-03-27T14:42:55.007Z,28.25
2019-03-27T14:45:21.317Z,28.31
2019-03-27T14:47:47.644Z,28.78
2019-03-27T14:50:13.955Z,28.61
2019-03-27T14:52:40.272Z,28.57
2019-03-27T14:55:06.628Z,28.51
2019-03-27T14:57:32.935Z,28.57
2019-03-27T14:59:59.536Z,28.36
2019-03-27T15:02:25.841Z,28.62
2019-03-27T15:04:52.148Z,28.77
2019-03-27T15:07:18.480Z,28.80
2019-03-27T15:09:44.791Z,28.73
2019-03-27T15:12:11.104Z,28.65
2019-03-27T15:14:37.438Z,28.95
2019-03-27T15:17:03.737Z,28.91
2019-03-27T15:19:30.035Z,28.93
2019-03-27T15:21:56.373Z,29.23
2019-03-27T15:24:22.681Z,29.18
2019-03-27T15:26:48.988Z,29.49
2019-03-27T15:29:15.325Z,29.44
2019-03-27T15:31:41.652Z,29.48
2019-03-27T15:34:07.963Z,29.73
2019-03-27T15:36:34.481Z,29.80
2019-03-27T15:39:00.817Z,29.88
2019-03-27T15:41:27.123Z,29.82
2019-03-27T15:43:53.435Z,29.87
2019-03-27T15:46:19.812Z,29.86
2019-03-27T15:48:46.138Z,30.04
2019-03-27T15:51:12.453Z,30.14
2019-03-27T15:53:38.761Z,30.27
2019-03-27T15:56:05.084Z,30.17
2019-03-27T15:58:31.397Z,30.40
2019-03-27T16:00:57.705Z,30.48
2019-03-27T16:03:24.008Z,30.50
2019-03-27T16:05:50.324Z,30.60
2019-03-27T16:08:16.624Z,30.71
2019-03-27T16:10:43.012Z,30.86
2019-03-27T16:13:09.327Z,31.01
2019-03-27T16:15:37.221Z,31.13
2019-03-27T16:18:01.944Z,31.36
2019-03-27T16:20:28.248Z,31.39
2019-03-27T16:22:54.550Z,31.80
2019-03-27T16:25:20.863Z,32.07
2019-03-27T16:27:47.175Z,32.42
2019-03-27T16:30:16.880Z,32.50
2019-03-27T16:32:39.792Z,32.50
2019-03-27T16:35:06.100Z,32.63
2019-03-27T16:37:32.434Z,33.03
2019-03-27T16:39:58.750Z,32.96
2019-03-27T16:42:25.060Z,32.77
2019-03-27T16:44:51.375Z,32.96
2019-03-27T16:47:17.678Z,33.06
2019-03-27T16:49:43.989Z,32.93
2019-03-27T16:52:10.335Z,32.86
2019-03-27T16:54:36.651Z,32.76
2019-03-27T16:57:02.986Z,32.87
2019-03-27T16:59:29.345Z,32.94
2019-03-27T17:01:55.655Z,33.28
2019-03-27T17:04:21.959Z,33.20
2019-03-27T17:06:48.274Z,33.28
2019-03-27T17:09:14.582Z,33.38
2019-03-27T17:11:40.920Z,33.32
2019-03-27T17:14:07.297Z,33.31
2019-03-27T17:16:33.601Z,33.47
2019-03-27T17:18:59.909Z,33.62
2019-03-27T17:21:26.227Z,33.79
2019-03-27T17:23:52.575Z,33.98
2019-03-27T17:26:18.888Z,34.12
2019-03-27T17:28:45.203Z,34.42
2019-03-27T17:31:11.500Z,34.75
2019-03-27T17:33:37.813Z,34.83
2019-03-27T17:36:04.283Z,35.16
2019-03-27T17:38:30.447Z,35.43
2019-03-27T17:40:56.762Z,35.41
2019-03-27T17:43:23.079Z,36.07
2019-03-27T17:45:49.389Z,35.66
2019-03-27T17:48:15.714Z,35.79
2019-03-27T17:50:42.044Z,36.28
2019-03-27T17:53:08.351Z,35.97
2019-03-27T17:55:34.670Z,36.38
2019-03-27T17:58:00.972Z,36.57
2019-03-27T18:00:27.280Z,36.52
2019-03-27T18:02:53.626Z,36.43
2019-03-27T18:05:19.962Z,36.62
2019-03-27T18:07:46.282Z,36.73
2019-03-27T18:10:12.589Z,36.57
2019-03-27T18:12:38.919Z,37.11
2019-03-27T18:15:05.225Z,37.24
2019-03-27T18:17:31.552Z,36.92
2019-03-27T18:19:57.861Z,37.14
2019-03-27T18:22:24.202Z,37.29
2019-03-27T18:24:50.568Z,37.20
2019-03-27T18:27:16.896Z,37.42
2019-03-27T18:29:43.340Z,37.66
2019-03-27T18:32:09.736Z,37.64
2019-03-27T18:34:37.517Z,37.75
2019-03-27T18:37:03.944Z,37.98
2019-03-27T18:39:30.293Z,38.01
2019-03-27T18:41:56.725Z,38.25
2019-03-27T18:44:22.996Z,37.83
2019-03-27T18:46:49.306Z,37.98
2019-03-27T18:49:15.607Z,38.37
2019-03-27T18:51:41.918Z,38.57
2019-03-27T18:54:08.231Z,38.60
2019-03-27T18:56:34.572Z,38.85
2019-03-27T18:59:00.892Z,38.68
2019-03-27T19:01:27.195Z,38.76
2019-03-27T19:03:53.503Z,38.67
2019-03-27T19:06:19.817Z,38.95
2019-03-27T19:08:46.265Z,39.09
2019-03-27T19:11:12.534Z,38.93
2019-03-27T19:13:38.876Z,39.17
2019-03-27T19:16:05.174Z,39.09
2019-03-27T19:18:31.505Z,39.39
2019-03-27T19:20:57.810Z,39.48
2019-03-27T19:23:24.117Z,39.02
2019-03-27T19:25:50.427Z,39.18
2019-03-27T19:28:16.727Z,38.99
2019-03-27T19:30:43.065Z,39.05
2019-03-27T19:33:09.370Z,39.24
2019-03-27T19:35:35.702Z,39.63
2019-03-27T19:38:02.009Z,39.60
2019-03-27T19:40:28.319Z,39.65
2019-03-27T19:42:54.624Z,39.72
2019-03-27T19:45:20.954Z,39.90
2019-03-27T19:47:47.265Z,40.02
2019-03-27T19:50:13.600Z,39.49
2019-03-27T19:52:39.906Z,40.05
2019-03-27T19:55:06.239Z,39.87
2019-03-27T19:57:32.546Z,39.92
2019-03-27T19:59:58.863Z,40.20
2019-03-27T20:02:25.168Z,40.45
2019-03-27T20:04:51.484Z,40.33
2019-03-27T20:07:17.818Z,40.07
2019-03-27T20:09:44.123Z,40.28
2019-03-27T20:12:10.432Z,40.74
2019-03-27T20:14:36.743Z,40.84
2019-03-27T20:17:03.051Z,40.92
2019-03-27T20:19:29.350Z,40.83
2019-03-27T20:21:55.657Z,40.94
2019-03-27T20:24:21.958Z,41.06
2019-03-27T20:26:48.271Z,41.21
2019-03-27T20:29:14.576Z,41.20
2019-03-27T20:31:40.889Z,41.48
2019-03-27T20:34:07.197Z,41.45
2019-03-27T20:36:33.502Z,41.56
2019-03-27T20:38:59.801Z,41.83
2019-03-27T20:41:26.133Z,41.91
2019-03-27T20:43:52.438Z,41.99
2019-03-27T20:46:24.993Z,42.15
2019-03-27T20:48:45.047Z,42.65
2019-03-27T20:51:11.358Z,42.49
2019-03-27T20:53:37.663Z,42.79
2019-03-27T20:56:03.966Z,43.00
2019-03-27T20:58:30.281Z,42.86
2019-03-27T21:00:56.596Z,42.81
2019-03-27T21:03:22.922Z,42.52
2019-03-27T21:05:49.230Z,42.99
2019-03-27T21:08:15.531Z,43.12
2019-03-27T21:10:41.838Z,43.40
2019-03-27T21:13:08.147Z,43.38
2019-03-27T21:15:34.458Z,43.33
2019-03-27T21:18:00.767Z,43.13
2019-03-27T21:20:27.077Z,43.27
2019-03-27T21:22:53.393Z,43.65
2019-03-27T21:25:19.696Z,43.05
2019-03-27T21:27:46.025Z,43.52
2019-03-27T21:30:12.339Z,43.52
2019-03-27T21:32:38.651Z,43.46
2019-03-27T21:35:05.038Z,44.07
2019-03-27T21:37:31.344Z,44.26
2019-03-27T21:39:57.654Z,44.99
2019-03-27T21:42:23.955Z,44.75
2019-03-27T21:44:50.260Z,44.80
2019-03-27T21:47:16.576Z,44.84
2019-03-27T21:49:42.882Z,45.05
2019-03-27T21:52:09.183Z,45.03
2019-03-27T21:54:35.488Z,45.00
2019-03-27T21:57:01.793Z,45.49
2019-03-27T21:59:28.098Z,45.40
2019-03-27T22:01:54.409Z,45.73
2019-03-27T22:04:20.729Z,45.75
2019-03-27T22:06:47.043Z,45.99
2019-03-27T22:09:13.339Z,46.15
2019-03-27T22:11:39.725Z,46.49
2019-03-27T22:14:06.027Z,46.37
2019-03-27T22:16:32.340Z,46.58
2019-03-27T22:18:58.640Z,46.52
2019-03-27T22:21:24.942Z,47.04
2019-03-27T22:23:51.269Z,46.68
2019-03-27T22:26:17.585Z,46.84
2019-03-27T22:28:43.885Z,47.05
2019-03-27T22:31:10.186Z,47.11
2019-03-27T22:33:36.802Z,46.93
2019-03-27T22:36:03.109Z,47.04
2019-03-27T22:38:29.415Z,47.34
2019-03-27T22:40:55.715Z,47.30
2019-03-27T22:43:22.034Z,46.94
2019-03-27T22:45:48.350Z,47.36
2019-03-27T22:48:14.670Z,47.27
2019-03-27T22:50:40.977Z,47.29
2019-03-27T22:53:07.279Z,47.35
2019-03-27T22:55:33.590Z,47.19
2019-03-27T22:57:59.899Z,46.95
2019-03-27T23:00:26.203Z,46.91
2019-03-27T23:02:52.503Z,46.96
2019-03-27T23:05:19.132Z,47.20
2019-03-27T23:07:45.434Z,47.40
2019-03-27T23:10:11.741Z,47.20
2019-03-27T23:12:38.044Z,47.41
2019-03-27T23:15:04.468Z,47.36
2019-03-27T23:17:30.898Z,47.60
2019-03-27T23:19:57.196Z,47.99
2019-03-27T23:22:23.503Z,47.39
2019-03-27T23:24:52.604Z,47.31
2019-03-27T23:27:18.940Z,47.44
2019-03-27T23:29:45.272Z,47.47
2019-03-27T23:32:11.575Z,47.53
2019-03-27T23:34:37.878Z,47.38
2019-03-27T23:37:04.178Z,47.35
2019-03-27T23:39:30.488Z,47.42
2019-03-27T23:41:56.792Z,47.44
2019-03-27T23:44:23.103Z,47.52
2019-03-27T23:46:49.412Z,47.50
2019-03-27T23:49:15.752Z,47.50
2019-03-27T23:51:42.055Z,47.30
2019-03-27T23:54:08.375Z,47.39
2019-03-27T23:56:34.679Z,47.34
2019-03-27T23:59:00.983Z,47.29
